| Date | Time | Temp. (oF) | Dew Point (oF) | Rel. Hum. (%) | Press. (in.) | Wind Dir. | Wind Speed (mph) | Hourly Rainfall (in.) |
|
|---|---|---|---|---|---|---|---|---|---|
| 1 | 12/29 | 00:00 | 45 | 45 | 100 | 29.87 | SSW | 1 | 0.00 |
| 2 | 12/28 | 23:00 | 45 | 45 | 100 | 29.86 | NW | 5 | 0.00 |
| 3 | 12/28 | 22:00 | 46 | 45 | 100 | 29.88 | WSW | 2 | 0.00 |
| 4 | 12/28 | 21:00 | 48 | 48 | 100 | 29.85 | WNW | 1 | 0.00 |
| 5 | 12/28 | 20:00 | 48 | 48 | 100 | 29.85 | WNW | 1 | 0.00 |
| 6 | 12/28 | 19:00 | 48 | 48 | 100 | 29.87 | WNW | 3 | 0.00 |
| 7 | 12/28 | 18:00 | 49 | 49 | 100 | 29.87 | ENE | 1 | 0.00 |
| 8 | 12/28 | 17:00 | 49 | 49 | 100 | 29.89 | WSW | 2 | 0.00 |
| 9 | 12/28 | 16:00 | 50 | 50 | 100 | 29.86 | NW | 7 | 0.03 |
| 10 | 12/28 | 15:00 | 50 | 49 | 98 | 29.91 | NW | 1 | 0.01 |
| 11 | 12/28 | 14:00 | 53 | 53 | 100 | 29.88 | NW | 1 | 0.04 |
| 12 | 12/28 | 13:00 | 53 | 53 | 100 | 29.92 | S | 4 | 0.00 |
| 13 | 12/28 | 12:00 | 52 | 51 | 100 | 29.93 | S | 7 | 0.00 |
| 14 | 12/28 | 11:00 | 51 | 50 | 100 | 29.97 | SSW | 2 | 0.01 |
| 15 | 12/28 | 10:00 | 50 | 50 | 100 | 30.02 | S | 5 | 0.01 |
| 16 | 12/28 | 09:00 | 49 | 49 | 100 | 30.05 | SSE | 6 | 0.14 |
| 17 | 12/28 | 08:00 | 47 | 46 | 100 | 30.08 | S | 4 | 0.10 |
| 18 | 12/28 | 07:00 | 42 | 41 | 100 | 30.11 | ESE | 3 | 0.12 |
| 19 | 12/28 | 06:00 | 40 | 40 | 100 | 30.15 | NNW | 3 | 0.12 |
| 20 | 12/28 | 05:00 | 40 | 40 | 100 | 30.18 | ENE | 1 | 0.14 |
| 21 | 12/28 | 04:00 | 39 | 38 | 99 | 30.22 | N | 3 | 0.03 |
| 22 | 12/28 | 03:00 | 39 | 38 | 99 | 30.27 | NNW | 2 | 0.03 |
| 23 | 12/28 | 02:00 | 39 | 38 | 97 | 30.30 | ESE | 3 | 0.00 |
| 24 | 12/28 | 01:00 | 39 | 37 | 94 | 30.31 | ESE | 1 | 0.00 |